Time;durP1;ratioP1;P1;durP2;ratioP2;P2;SDS_P1;SDS_P2;PMS_P1;PMS_P2;Temp;Humidity;BMP_temperature;BMP_pressure;BME280_temperature;BME280_humidity;BME280_pressure;Samples;Min_cycle;Max_cycle;Signal;HPM_P1;HPM_P2
2021/07/08 00:02:09;;;;;;;;;;;;;;;;;;;;;
2021/07/08 00:05:32;;;;;;;13.40;5.00;;;16.10;99.90;;;;;;4848200;29;20206;-84
2021/07/08 00:08:49;;;;;;;12.82;6.07;;;16.10;99.90;;;;;;4853785;29;20056;-85
2021/07/08 00:11:48;;;;;;;9.57;5.28;;;16.10;99.90;;;;;;4864006;29;20057;-85
2021/07/08 00:19:00;;;;;;;10.10;4.78;;;16.10;99.90;;;;;;4840105;29;20057;-85
2021/07/08 00:21:59;;;;;;;12.40;5.13;;;16.20;99.90;;;;;;4856238;29;20050;-86
2021/07/08 00:25:47;;;;;;;8.02;4.38;;;15.10;99.90;;;;;;4839256;29;20062;-85
2021/07/08 00:29:36;;;;;;;;;;;;;;;;;;;;;
2021/07/08 00:32:41;;;;;;;12.20;6.10;;;16.00;99.90;;;;;;4807375;29;20062;-84
2021/07/08 00:36:25;;;;;;;;;;;;;;;;;;;;;
2021/07/08 00:39:27;;;;;;;15.73;5.68;;;15.90;99.90;;;;;;4812222;29;20081;-85
2021/07/08 00:42:56;;;;;;;12.32;5.60;;;15.80;99.90;;;;;;4816303;29;20059;-84
2021/07/08 00:46:18;;;;;;;;;;;;;;;;;;;;;
2021/07/08 00:49:29;;;;;;;8.95;4.97;;;15.80;99.90;;;;;;4764503;30;20078;-86
2021/07/08 00:52:58;;;;;;;;;;;;;;;;;;;;;
2021/07/08 00:56:38;;;;;;;;;;;;;;;;;;;;;
2021/07/08 00:59:55;;;;;;;12.98;6.35;;;15.90;99.90;;;;;;4773669;29;20062;-84
2021/07/08 01:03:08;;;;;;;8.70;5.45;;;15.70;99.90;;;;;;4843756;29;20045;-84
2021/07/08 01:06:22;;;;;;;;;;;;;;;;;;;;;
2021/07/08 01:10:09;;;;;;;16.15;6.43;;;15.30;99.90;;;;;;4874073;29;20049;-84
2021/07/08 01:13:20;;;;;;;14.55;6.57;;;15.80;99.90;;;;;;4849078;29;20054;-84
2021/07/08 01:17:08;;;;;;;11.98;5.80;;;15.60;99.90;;;;;;4789717;29;20202;-85
2021/07/08 01:20:32;;;;;;;13.25;6.90;;;15.60;99.90;;;;;;4808394;29;20061;-86
2021/07/08 01:24:14;;;;;;;14.23;6.78;;;15.60;99.90;;;;;;4799553;29;20066;-83
2021/07/08 01:27:18;;;;;;;13.05;6.82;;;15.40;99.90;;;;;;4804225;29;20249;-84
2021/07/08 01:30:49;;;;;;;;;;;;;;;;;;;;;
2021/07/08 01:34:27;;;;;;;14.25;6.05;;;15.40;99.90;;;;;;4810524;29;20058;-85
2021/07/08 01:37:48;;;;;;;18.13;7.80;;;15.30;99.90;;;;;;4799272;29;20066;-84
2021/07/08 01:40:42;;;;;;;14.90;7.45;;;15.40;99.90;;;;;;4797767;29;20051;-84
2021/07/08 01:44:13;;;;;;;16.35;7.50;;;15.20;99.90;;;;;;4782097;29;20043;-84
2021/07/08 01:47:17;;;;;;;12.68;6.13;;;15.20;99.90;;;;;;4816143;29;20070;-84
2021/07/08 01:49:59;;;;;;;14.77;7.60;;;15.10;99.90;;;;;;4791649;29;20161;-85
2021/07/08 01:53:20;;;;;;;15.52;6.75;;;15.10;99.90;;;;;;4837738;29;20065;-82
2021/07/08 01:56:23;;;;;;;15.30;7.35;;;15.10;99.90;;;;;;4836909;29;20065;-85
2021/07/08 01:59:42;;;;;;;18.58;7.35;;;15.00;99.90;;;;;;4834710;29;20063;-85
2021/07/08 02:02:53;;;;;;;;;;;;;;;;;;;;;
2021/07/08 02:05:57;;;;;;;23.58;8.07;;;15.10;99.90;;;;;;4817574;29;20058;-83
2021/07/08 02:08:58;;;;;;;13.98;7.30;;;15.00;99.90;;;;;;4827435;29;20050;-84
2021/07/08 02:12:10;;;;;;;;;;;;;;;;;;;;;
2021/07/08 02:14:50;;;;;;;;;;;;;;;;;;;;;
2021/07/08 02:17:36;;;;;;;16.08;7.43;;;13.70;99.90;;;;;;4872045;29;20223;-85
2021/07/08 02:20:59;;;;;;;;;;;;;;;;;;;;;
2021/07/08 02:23:54;;;;;;;14.88;7.82;;;14.90;99.90;;;;;;4857994;29;20057;-85
2021/07/08 02:26:39;;;;;;;17.67;7.55;;;14.90;99.90;;;;;;4849449;29;20073;-84
2021/07/08 02:29:17;;;;;;;15.85;7.93;;;14.90;99.90;;;;;;4873346;29;20065;-83
2021/07/08 02:32:08;;;;;;;18.50;7.07;;;14.90;99.90;;;;;;4845042;29;20053;-84
2021/07/08 02:34:48;;;;;;;;;;;15.00;99.90;;;;;;4872959;29;20042;-83
2021/07/08 02:37:44;;;;;;;18.35;8.82;;;15.30;99.90;;;;;;4842051;29;19920;-83
2021/07/08 02:40:53;;;;;;;14.68;7.18;;;15.00;99.90;;;;;;4844167;29;20056;-86
2021/07/08 02:43:30;;;;;;;20.27;8.95;;;15.00;99.90;;;;;;4865697;29;20400;-84
2021/07/08 02:46:34;;;;;;;18.13;9.27;;;15.00;99.90;;;;;;4858719;29;20045;-84
2021/07/08 02:49:41;;;;;;;14.60;8.05;;;15.00;99.90;;;;;;4843734;29;20057;-83
2021/07/08 02:52:29;;;;;;;;;;;;;;;;;;;;;
2021/07/08 02:55:36;;;;;;;18.02;9.73;;;15.00;99.90;;;;;;4856384;29;20343;-85
2021/07/08 02:58:31;;;;;;;18.50;7.95;;;15.10;99.90;;;;;;4847732;29;20054;-84
2021/07/08 03:01:10;;;;;;;;;;;;;;;;;;;;;
2021/07/08 03:03:58;;;;;;;15.93;8.55;;;15.00;99.90;;;;;;4860470;29;20058;-83
2021/07/08 03:06:49;;;;;;;29.80;10.75;;;15.10;99.90;;;;;;4872340;29;20053;-85
2021/07/08 03:09:42;;;;;;;16.67;7.88;;;15.10;99.90;;;;;;4871604;29;20061;-85
2021/07/08 03:12:44;;;;;;;24.40;9.68;;;15.10;99.90;;;;;;4866929;29;20058;-85
2021/07/08 03:15:54;;;;;;;18.52;8.57;;;15.10;99.90;;;;;;4841571;29;20065;-84
2021/07/08 03:19:00;;;;;;;18.65;8.82;;;15.10;99.90;;;;;;4840668;29;20054;-84
2021/07/08 03:21:58;;;;;;;16.98;9.20;;;15.00;99.90;;;;;;4839792;29;20050;-84
2021/07/08 03:25:06;;;;;;;21.80;8.55;;;15.10;99.90;;;;;;4837903;29;20073;-84
2021/07/08 03:27:48;;;;;;;17.10;8.77;;;15.10;99.90;;;;;;4836283;29;21008;-83
2021/07/08 03:30:54;;;;;;;19.05;8.27;;;15.10;99.90;;;;;;4823093;29;20057;-84
2021/07/08 03:34:01;;;;;;;18.85;7.57;;;15.20;99.90;;;;;;4852964;29;20061;-84
2021/07/08 03:37:19;;;;;;;;;;;;;;;;;;;;;
2021/07/08 03:40:04;;;;;;;21.40;7.72;;;15.20;99.90;;;;;;4870259;29;20057;-83
2021/07/08 03:43:00;;;;;;;17.60;9.45;;;15.20;99.90;;;;;;4859204;29;20140;-84
2021/07/08 03:45:53;;;;;;;20.45;8.98;;;15.10;99.90;;;;;;4872191;29;20045;-84
2021/07/08 03:48:39;;;;;;;17.25;9.50;;;15.20;99.90;;;;;;4858647;29;20050;-83
2021/07/08 03:51:54;;;;;;;19.67;7.43;;;15.20;99.90;;;;;;4849495;29;20065;-84
2021/07/08 03:55:04;;;;;;;20.35;8.68;;;15.30;99.90;;;;;;4844647;29;20081;-84
2021/07/08 03:57:52;;;;;;;19.13;8.75;;;15.00;99.90;;;;;;4849399;29;20052;-85
2021/07/08 04:00:59;;;;;;;;;;;;;;;;;;;;;
2021/07/08 04:04:06;;;;;;;19.60;8.35;;;14.90;99.90;;;;;;4796630;30;20070;-84
2021/07/08 04:06:58;;;;;;;16.52;8.25;;;14.90;99.90;;;;;;4766234;30;20082;-86
2021/07/08 04:09:57;;;;;;;15.65;8.50;;;14.80;99.90;;;;;;4793990;30;20279;-83
2021/07/08 04:12:46;;;;;;;23.33;9.45;;;14.90;99.90;;;;;;4794236;30;20062;-83
2021/07/08 04:15:23;;;;;;;22.75;11.30;;;14.80;99.90;;;;;;4782567;30;20074;-83
2021/07/08 04:18:42;;;;;;;20.30;8.70;;;15.50;99.90;;;;;;4784991;29;20062;-84
2021/07/08 04:21:47;;;;;;;17.95;9.60;;;14.90;99.90;;;;;;4862323;29;20042;-84
2021/07/08 04:24:34;;;;;;;19.52;8.50;;;14.90;99.90;;;;;;4871982;29;20049;-85
2021/07/08 04:27:31;;;;;;;20.98;7.75;;;14.80;99.90;;;;;;4870501;29;20049;-85
2021/07/08 04:30:37;;;;;;;17.27;8.35;;;15.00;99.90;;;;;;4871757;29;20053;-84
2021/07/08 04:33:10;;;;;;;18.70;8.10;;;15.10;99.90;;;;;;4869082;29;20061;-84
2021/07/08 04:35:52;;;;;;;19.02;8.35;;;15.20;99.90;;;;;;4869535;29;20053;-85
2021/07/08 04:39:09;;;;;;;18.50;8.75;;;16.10;99.90;;;;;;4837727;29;20523;-84
2021/07/08 04:41:48;;;;;;;19.05;8.60;;;15.10;99.90;;;;;;4855947;29;20048;-84
2021/07/08 04:44:29;;;;;;;18.23;9.23;;;14.70;99.90;;;;;;4826484;29;20053;-84
2021/07/08 04:47:42;;;;;;;21.63;7.50;;;15.20;99.90;;;;;;4851637;29;20084;-84
2021/07/08 04:50:31;;;;;;;22.43;8.53;;;15.40;99.90;;;;;;4850179;29;20054;-84
2021/07/08 04:53:19;;;;;;;19.90;8.38;;;15.30;99.90;;;;;;4851738;29;20313;-84
2021/07/08 04:56:04;;;;;;;14.73;8.68;;;15.30;99.90;;;;;;4850843;29;20046;-85
2021/07/08 04:58:39;;;;;;;18.75;8.90;;;15.30;99.90;;;;;;4867293;29;20063;-84
2021/07/08 05:01:52;;;;;;;;;;;;;;;;;;;;;
2021/07/08 05:04:56;;;;;;;17.77;7.85;;;15.20;99.90;;;;;;4868074;29;20061;-83
2021/07/08 05:07:56;;;;;;;20.83;7.93;;;15.50;99.90;;;;;;4854773;29;20050;-84
2021/07/08 05:11:02;;;;;;;16.70;8.93;;;15.40;99.90;;;;;;4855166;29;20065;-84
2021/07/08 05:13:41;;;;;;;;;;;15.50;99.90;;;;;;4867829;29;20071;-84
2021/07/08 05:16:53;;;;;;;16.40;7.55;;;14.70;99.90;;;;;;4867829;29;19935;-85
2021/07/08 05:19:45;;;;;;;19.40;7.88;;;15.60;99.90;;;;;;4868584;29;20053;-83
2021/07/08 05:22:34;;;;;;;16.55;6.88;;;15.70;99.90;;;;;;4859402;29;20046;-84
2021/07/08 05:25:13;;;;;;;16.92;8.60;;;14.90;99.90;;;;;;4820019;29;20058;-84
2021/07/08 05:28:39;;;;;;;;;;;;;;;;;;;;;
2021/07/08 05:31:22;;;;;;;17.48;9.80;;;15.80;99.90;;;;;;4853469;29;20062;-84
2021/07/08 05:33:58;;;;;;;17.88;7.10;;;16.00;99.90;;;;;;4856549;29;20054;-86
2021/07/08 05:37:14;;;;;;;20.73;6.82;;;16.00;99.90;;;;;;4823210;29;20070;-84
2021/07/08 05:40:14;;;;;;;14.20;6.22;;;16.10;99.90;;;;;;4817947;29;20073;-84
2021/07/08 05:43:36;;;;;;;15.55;5.70;;;16.20;99.90;;;;;;4812497;29;20059;-83
2021/07/08 05:46:22;;;;;;;19.38;6.40;;;15.40;99.90;;;;;;4794197;29;20058;-83
2021/07/08 05:49:13;;;;;;;19.63;7.25;;;16.40;99.90;;;;;;4806881;29;20085;-83
2021/07/08 05:51:48;;;;;;;15.60;7.15;;;16.20;99.90;;;;;;4804011;29;20065;-84
2021/07/08 05:54:38;;;;;;;12.00;5.65;;;16.90;99.90;;;;;;4848067;29;20066;-85
2021/07/08 05:57:10;;;;;;;15.30;6.72;;;16.20;99.90;;;;;;4857866;29;20061;-83
2021/07/08 05:59:54;;;;;;;11.82;6.28;;;16.30;99.90;;;;;;4856530;29;20056;-84
2021/07/08 06:02:25;;;;;;;16.17;6.18;;;16.50;99.90;;;;;;4870351;29;20048;-83
2021/07/08 06:05:15;;;;;;;16.70;7.45;;;15.80;99.90;;;;;;4870827;29;20056;-85
2021/07/08 06:07:54;;;;;;;12.63;5.32;;;16.50;99.90;;;;;;4849067;29;20167;-86
2021/07/08 06:10:32;;;;;;;;;;;;;;;;;;;;;
2021/07/08 06:13:14;;;;;;;9.80;5.57;;;16.60;99.90;;;;;;4860820;29;20050;-84
2021/07/08 06:16:00;;;;;;;13.15;6.25;;;17.10;99.90;;;;;;4839177;29;20046;-84
2021/07/08 06:18:32;;;;;;;16.73;5.57;;;16.80;99.90;;;;;;4870295;29;20046;-84
2021/07/08 06:21:06;;;;;;;14.43;5.43;;;16.90;99.90;;;;;;4862377;29;20056;-83
2021/07/08 06:23:38;;;;;;;10.93;5.57;;;17.00;99.90;;;;;;4854196;29;20046;-83
2021/07/08 06:26:22;;;;;;;13.88;5.50;;;17.10;99.90;;;;;;4864427;29;20066;-84
2021/07/08 06:28:54;;;;;;;11.13;5.32;;;17.10;99.90;;;;;;4861032;29;20061;-82
2021/07/08 06:31:26;;;;;;;;;;;17.20;99.90;;;;;;4848546;29;20057;-83
2021/07/08 06:33:56;;;;;;;12.65;5.60;;;17.00;99.90;;;;;;4857364;29;20280;-83
2021/07/08 06:36:25;;;;;;;14.20;5.97;;;17.30;99.90;;;;;;4860755;29;20050;-83
2021/07/08 06:38:53;;;;;;;13.90;6.57;;;17.30;99.90;;;;;;4860111;29;20060;-85
2021/07/08 06:41:26;;;;;;;10.38;5.18;;;17.30;99.90;;;;;;4860581;29;20046;-83
2021/07/08 06:43:57;;;;;;;9.07;4.57;;;17.40;99.90;;;;;;4860452;29;20050;-83
2021/07/08 06:46:30;;;;;;;9.02;5.20;;;17.30;99.90;;;;;;4870287;29;20061;-85
2021/07/08 06:49:01;;;;;;;10.70;4.97;;;17.40;99.90;;;;;;4870862;29;20057;-83
2021/07/08 06:51:41;;;;;;;11.82;5.30;;;17.40;99.90;;;;;;4855160;29;20057;-81
2021/07/08 06:54:09;;;;;;;9.50;4.55;;;17.40;99.90;;;;;;4853408;29;20060;-83
2021/07/08 06:56:47;;;;;;;12.82;5.45;;;17.40;99.90;;;;;;4856240;29;20055;-84
2021/07/08 06:59:36;;;;;;;15.20;6.07;;;17.90;99.90;;;;;;4862930;29;20131;-83
2021/07/08 07:02:14;;;;;;;11.02;4.68;;;17.60;99.90;;;;;;4845611;29;20066;-84
2021/07/08 07:04:54;;;;;;;10.07;5.28;;;17.50;99.90;;;;;;4852663;29;20058;-84
2021/07/08 07:07:45;;;;;;;11.38;4.32;;;17.60;99.90;;;;;;4850072;29;20057;-83
2021/07/08 07:10:27;;;;;;;11.48;5.32;;;17.70;99.90;;;;;;4859248;29;20064;-84
2021/07/08 07:13:12;;;;;;;14.57;5.70;;;17.70;99.90;;;;;;4858427;29;20166;-83
2021/07/08 07:16:01;;;;;;;;;;;;;;;;;;;;;
2021/07/08 07:18:40;;;;;;;12.23;5.17;;;17.70;99.90;;;;;;4868846;29;20042;-84
2021/07/08 07:21:19;;;;;;;8.75;4.55;;;17.60;99.90;;;;;;4838585;29;20057;-83
2021/07/08 07:23:52;;;;;;;11.27;5.60;;;17.00;99.90;;;;;;4868732;29;20060;-83
2021/07/08 07:26:27;;;;;;;16.30;4.68;;;17.80;99.90;;;;;;4869836;29;20054;-83
2021/07/08 07:29:05;;;;;;;11.88;5.10;;;17.70;99.90;;;;;;4850682;29;20484;-84
2021/07/08 07:31:42;;;;;;;14.55;5.22;;;17.80;99.90;;;;;;4851657;29;20065;-83
2021/07/08 07:34:34;;;;;;;11.93;4.47;;;18.10;99.90;;;;;;4868341;29;20061;-83
2021/07/08 07:37:02;;;;;;;10.55;4.53;;;18.10;99.90;;;;;;4836858;29;20053;-83
2021/07/08 07:39:33;;;;;;;7.47;4.68;;;18.30;99.90;;;;;;4859011;29;20054;-83
2021/07/08 07:42:11;;;;;;;12.27;4.53;;;18.30;99.90;;;;;;4858359;29;20037;-83
2021/07/08 07:44:46;;;;;;;11.43;4.40;;;17.70;99.90;;;;;;4854860;29;20049;-83
2021/07/08 07:47:15;;;;;;;12.88;4.35;;;18.60;99.90;;;;;;4853493;29;20697;-84
2021/07/08 07:49:55;;;;;;;18.33;5.32;;;18.70;99.90;;;;;;4847901;29;20058;-83
2021/07/08 07:52:23;;;;;;;7.65;3.85;;;18.90;99.90;;;;;;4849228;29;20065;-82
2021/07/08 07:54:52;;;;;;;13.98;4.85;;;19.00;99.90;;;;;;4833852;29;20046;-83
2021/07/08 07:57:36;;;;;;;20.35;4.78;;;19.20;99.90;;;;;;4854948;29;20404;-83
2021/07/08 08:00:26;;;;;;;11.85;4.75;;;19.00;99.90;;;;;;4864947;29;20046;-83
2021/07/08 08:03:11;;;;;;;8.55;4.28;;;18.90;99.90;;;;;;4842702;29;20399;-83
2021/07/08 08:05:49;;;;;;;6.88;4.75;;;19.00;99.90;;;;;;4851327;29;20061;-82
2021/07/08 08:08:34;;;;;;;9.60;4.30;;;19.10;99.90;;;;;;4849992;29;20060;-83
2021/07/08 08:11:10;;;;;;;12.25;4.35;;;18.40;99.90;;;;;;4849623;29;20066;-83
2021/07/08 08:14:15;;;;;;;11.18;4.28;;;19.50;99.90;;;;;;4848569;29;20417;-84
2021/07/08 08:17:10;;;;;;;10.50;3.97;;;19.60;99.90;;;;;;4849915;29;20075;-84
2021/07/08 08:19:50;;;;;;;16.45;4.50;;;19.70;99.90;;;;;;4881156;29;20061;-84
2021/07/08 08:22:33;;;;;;;12.82;4.85;;;19.80;99.90;;;;;;4850652;29;20060;-84
2021/07/08 08:25:15;;;;;;;15.52;4.97;;;19.80;99.90;;;;;;4850229;29;20046;-83
2021/07/08 08:28:04;;;;;;;17.40;4.80;;;19.70;99.90;;;;;;4839234;29;20057;-83
2021/07/08 08:30:50;;;;;;;;;;;;;;;;;;;;;
2021/07/08 08:33:34;;;;;;;11.70;5.07;;;19.60;99.90;;;;;;4848331;29;20064;-83
2021/07/08 08:36:17;;;;;;;;;;;;;;;;;;;;;
2021/07/08 08:39:15;;;;;;;9.13;4.60;;;19.50;99.90;;;;;;4873916;29;20059;-84
2021/07/08 08:41:48;;;;;;;10.50;4.22;;;19.60;99.90;;;;;;4840162;29;20057;-84
2021/07/08 08:44:22;;;;;;;11.63;4.50;;;19.90;99.90;;;;;;4853704;29;20054;-85
2021/07/08 08:46:52;;;;;;;8.75;4.40;;;19.60;99.90;;;;;;4855359;29;20054;-83
2021/07/08 08:49:40;;;;;;;8.27;3.72;;;19.70;99.90;;;;;;4848912;29;20073;-84
2021/07/08 08:52:16;;;;;;;7.03;3.10;;;19.70;99.90;;;;;;4844479;29;20058;-83
2021/07/08 08:54:58;;;;;;;7.97;4.30;;;19.80;99.90;;;;;;4879577;29;20054;-84
2021/07/08 08:57:53;;;;;;;8.73;3.83;;;20.00;99.90;;;;;;4849195;29;20061;-83
2021/07/08 09:00:35;;;;;;;12.30;3.65;;;20.90;99.90;;;;;;4853555;29;20049;-83
2021/07/08 09:03:11;;;;;;;9.20;4.00;;;20.70;99.90;;;;;;4868593;29;20065;-83
2021/07/08 09:06:21;;;;;;;8.65;3.53;;;20.50;99.90;;;;;;4848755;29;20045;-82
2021/07/08 09:09:08;;;;;;;7.53;3.97;;;20.60;99.90;;;;;;4856358;29;20061;-82
2021/07/08 09:11:44;;;;;;;9.32;3.67;;;20.50;99.90;;;;;;4872130;29;20045;-83
2021/07/08 09:14:42;;;;;;;8.27;3.38;;;20.50;99.90;;;;;;4872626;29;20087;-83
2021/07/08 09:17:20;;;;;;;6.93;3.70;;;20.70;99.90;;;;;;4860728;29;20426;-83
2021/07/08 09:20:19;;;;;;;10.85;4.20;;;20.80;99.90;;;;;;4846855;29;20057;-84
2021/07/08 09:23:23;;;;;;;7.68;4.47;;;21.00;99.90;;;;;;4851186;29;20046;-83
2021/07/08 09:26:17;;;;;;;;;;;21.10;99.90;;;;;;4868828;29;20054;-83
2021/07/08 09:29:09;;;;;;;13.77;3.58;;;21.30;99.90;;;;;;4872167;29;19939;-82
2021/07/08 09:32:16;;;;;;;7.82;2.95;;;20.70;99.90;;;;;;4874006;29;20049;-83
2021/07/08 09:35:07;;;;;;;9.18;3.97;;;21.30;99.90;;;;;;4870075;29;20060;-84
2021/07/08 09:37:41;;;;;;;4.80;2.63;;;21.40;99.90;;;;;;4859843;29;20060;-83
2021/07/08 09:40:22;;;;;;;6.13;3.05;;;21.70;99.90;;;;;;4871629;29;20054;-84
2021/07/08 09:42:56;;;;;;;7.93;3.28;;;21.60;99.90;;;;;;4870946;29;20406;-83
2021/07/08 09:45:54;;;;;;;5.47;2.42;;;21.80;99.90;;;;;;4852698;29;20046;-83
2021/07/08 09:49:03;;;;;;;9.30;3.00;;;22.00;99.90;;;;;;4839189;29;20049;-85
2021/07/08 09:51:54;;;;;;;6.53;3.45;;;22.00;99.90;;;;;;4859172;29;20052;-84
2021/07/08 09:55:14;;;;;;;8.70;3.42;;;21.70;99.90;;;;;;4855588;29;20058;-83
2021/07/08 09:57:47;;;;;;;9.20;3.60;;;21.50;99.90;;;;;;4864401;29;20053;-85
2021/07/08 10:00:23;;;;;;;7.53;3.40;;;21.30;99.90;;;;;;4864272;29;20059;-83
2021/07/08 10:02:58;;;;;;;8.73;3.38;;;21.10;99.90;;;;;;4871101;29;20542;-84
2021/07/08 10:05:37;;;;;;;8.37;3.93;;;20.90;99.90;;;;;;4859517;29;20153;-84
2021/07/08 10:08:21;;;;;;;8.13;3.03;;;20.90;99.90;;;;;;4869893;29;20058;-84
2021/07/08 10:10:58;;;;;;;5.70;3.58;;;20.50;99.90;;;;;;4871461;29;20059;-82
2021/07/08 10:13:40;;;;;;;7.30;3.95;;;20.90;99.90;;;;;;4840372;29;20068;-85
2021/07/08 10:16:21;;;;;;;9.13;4.40;;;20.70;99.90;;;;;;4858563;29;20057;-84
2021/07/08 10:19:01;;;;;;;6.47;3.28;;;20.90;99.90;;;;;;4855163;29;20057;-84
2021/07/08 10:21:45;;;;;;;6.45;3.45;;;21.00;99.90;;;;;;4856768;29;20067;-82
2021/07/08 10:24:28;;;;;;;7.15;3.30;;;21.00;99.90;;;;;;4871602;29;20054;-83
2021/07/08 10:27:09;;;;;;;12.93;3.05;;;21.10;99.90;;;;;;4863514;29;20038;-83
2021/07/08 10:30:04;;;;;;;6.03;2.90;;;22.20;99.90;;;;;;4885381;29;20054;-83
2021/07/08 10:32:41;;;;;;;7.07;2.55;;;21.10;99.90;;;;;;4870500;29;20057;-82
2021/07/08 10:35:46;;;;;;;5.32;3.10;;;21.20;99.90;;;;;;4867133;29;20049;-86
2021/07/08 10:39:28;;;;;;;9.65;2.88;;;23.50;99.90;;;;;;4860266;29;20066;-86
2021/07/08 10:42:52;;;;;;;8.68;3.47;;;21.20;99.90;;;;;;4798698;29;20066;-85
2021/07/08 10:47:08;;;;;;;;;;;;;;;;;;;;;
2021/07/08 10:51:06;;;;;;;;;;;;;;;;;;;;;
2021/07/08 10:55:32;;;;;;;6.43;3.28;;;21.70;99.90;;;;;;4739561;30;20068;-84
2021/07/08 10:59:35;;;;;;;9.05;2.97;;;21.20;99.90;;;;;;4693862;30;20057;-85
2021/07/08 11:11:46;;;;;;;7.55;2.30;;;22.70;99.90;;;;;;4680622;30;20058;-84
2021/07/08 11:16:08;;;;;;;;;;;;;;;;;;;;;
2021/07/08 11:20:21;;;;;;;;;;;;;;;;;;;;;
2021/07/08 11:41:08;;;;;;;;;;;;;;;;;;;;;
2021/07/08 11:45:25;;;;;;;4.50;1.67;;;22.60;99.90;;;;;;4775037;29;20065;-87
2021/07/08 11:58:21;;;;;;;;;;;;;;;;;;;;;
2021/07/08 12:01:53;;;;;;;2.05;1.50;;;23.70;99.50;;;;;;4744823;30;20064;-85
2021/07/08 12:15:33;;;;;;;;;;;;;;;;;;;;;
2021/07/08 12:40:27;;;;;;;4.95;1.55;;;24.30;97.70;;;;;;4653911;30;20057;-87
2021/07/08 12:48:30;;;;;;;;;;;;;;;;;;;;;
2021/07/08 13:01:31;;;;;;;;;;;;;;;;;;;;;
2021/07/08 13:08:45;;;;;;;5.95;2.92;;;21.90;99.90;;;;;;5070787;28;20387;-84
2021/07/08 13:11:20;;;;;;;4.68;2.50;;;21.60;99.90;;;;;;5047323;28;20044;-90
2021/07/08 13:13:50;;;;;;;6.43;2.97;;;21.40;99.90;;;;;;5052053;28;20049;-89
2021/07/08 13:16:27;;;;;;;4.80;2.88;;;21.30;99.90;;;;;;5039058;28;20060;-89
2021/07/08 13:18:55;;;;;;;4.22;2.70;;;21.30;99.90;;;;;;5024168;28;20056;-90
2021/07/08 13:21:24;;;;;;;8.45;2.80;;;21.20;99.90;;;;;;5049634;28;20056;-89
2021/07/08 13:23:53;;;;;;;6.05;2.97;;;21.20;99.90;;;;;;5059277;28;20045;-90
2021/07/08 13:26:23;;;;;;;7.72;3.38;;;21.10;99.90;;;;;;5051329;28;20056;-88
2021/07/08 13:28:52;;;;;;;9.10;2.60;;;21.10;99.90;;;;;;5059062;28;20048;-89
2021/07/08 13:31:25;;;;;;;4.72;2.92;;;21.10;99.90;;;;;;5058551;28;20056;-89
2021/07/08 13:33:59;;;;;;;5.63;2.67;;;21.10;99.90;;;;;;5044148;28;20053;-90
2021/07/08 13:36:49;;;;;;;8.25;2.70;;;21.20;99.90;;;;;;5056944;28;20064;-89
2021/07/08 13:39:17;;;;;;;4.35;2.88;;;21.20;99.90;;;;;;5057145;28;20048;-90
2021/07/08 13:41:50;;;;;;;3.83;2.55;;;21.30;99.90;;;;;;5057195;28;20168;-91
2021/07/08 13:44:25;;;;;;;10.25;2.75;;;21.40;99.90;;;;;;5037504;28;20049;-90
2021/07/08 13:46:58;;;;;;;8.05;2.30;;;21.40;99.90;;;;;;5025969;28;20049;-89
2021/07/08 13:49:35;;;;;;;4.32;2.72;;;21.60;99.90;;;;;;5024820;28;20053;-89
2021/07/08 13:52:06;;;;;;;4.35;1.95;;;21.80;99.90;;;;;;5019813;28;20053;-90
2021/07/08 13:54:39;;;;;;;6.72;2.55;;;23.00;99.90;;;;;;5016902;28;20476;-89
2021/07/08 13:57:14;;;;;;;;;;;22.20;99.90;;;;;;5036326;28;20087;-91
2021/07/08 13:59:57;;;;;;;4.68;2.25;;;22.50;99.90;;;;;;5037431;28;19923;-93
2021/07/08 14:02:42;;;;;;;4.20;2.00;;;22.70;99.90;;;;;;5025649;28;20060;-92
2021/07/08 14:06:00;;;;;;;5.20;1.80;;;22.30;99.90;;;;;;5040719;28;20053;-92
2021/07/08 14:09:13;;;;;;;3.17;1.50;;;23.50;99.50;;;;;;5056450;28;20033;-92
2021/07/08 14:13:17;;;;;;;5.53;2.25;;;23.70;98.40;;;;;;5047921;28;20054;-91
2021/07/08 14:16:20;;;;;;;4.80;1.83;;;23.70;98.10;;;;;;5019997;28;20045;-92
2021/07/08 14:19:30;;;;;;;3.38;1.77;;;23.70;98.10;;;;;;5032677;28;20046;-92
2021/07/08 14:22:45;;;;;;;3.08;1.90;;;24.20;98.10;;;;;;5038158;23;20058;-84
2021/07/08 14:25:22;;;;;;;5.68;2.15;;;24.80;98.20;;;;;;5006559;28;20064;-83
2021/07/08 14:27:58;;;;;;;7.28;1.90;;;24.40;97.50;;;;;;5020323;28;20048;-83
2021/07/08 14:31:02;;;;;;;4.60;1.58;;;24.50;97.30;;;;;;5022340;28;20046;-84
2021/07/08 14:33:58;;;;;;;4.70;1.85;;;24.30;96.60;;;;;;4957526;28;20042;-86
2021/07/08 14:36:45;;;;;;;;;;;;;;;;;;;;;
2021/07/08 14:39:39;;;;;;;2.83;1.80;;;24.10;97.50;;;;;;5021876;28;20052;-85
2021/07/08 14:42:56;;;;;;;7.38;1.95;;;23.90;98.10;;;;;;5001058;28;20057;-85
2021/07/08 14:45:47;;;;;;;3.67;1.95;;;23.80;97.20;;;;;;4992378;28;20562;-84
2021/07/08 14:48:47;;;;;;;;;;;;;;;;;;;;;
2021/07/08 14:51:19;;;;;;;3.25;2.17;;;23.50;97.80;;;;;;5028208;28;20041;-85
2021/07/08 14:53:59;;;;;;;9.52;2.65;;;23.30;98.10;;;;;;5025066;28;20057;-84
2021/07/08 14:56:41;;;;;;;4.25;1.73;;;24.00;99.00;;;;;;5015535;28;20046;-83
2021/07/08 14:59:25;;;;;;;4.13;2.28;;;23.00;99.10;;;;;;5020061;28;20071;-84
2021/07/08 15:02:31;;;;;;;;;;;;;;;;;;;;;
2021/07/08 15:05:03;;;;;;;7.97;2.50;;;22.60;99.90;;;;;;5023287;28;20052;-83
2021/07/08 15:07:39;;;;;;;7.25;2.85;;;22.50;99.90;;;;;;5036206;28;20041;-84
2021/07/08 15:13:33;;;;;;;9.07;2.88;;;21.80;99.80;;;;;;5028475;28;20053;-83
2021/07/08 15:16:07;;;;;;;6.68;3.28;;;22.20;99.90;;;;;;5038904;28;20056;-84
2021/07/08 15:18:45;;;;;;;9.43;2.72;;;22.10;99.90;;;;;;5031329;28;20057;-83
2021/07/08 15:21:27;;;;;;;8.60;2.63;;;21.80;99.90;;;;;;5040318;28;20054;-84
2021/07/08 15:24:17;;;;;;;6.95;2.30;;;21.70;99.90;;;;;;5037995;28;20053;-84
2021/07/08 15:26:49;;;;;;;9.18;3.45;;;21.50;99.90;;;;;;5037814;28;20046;-85
2021/07/08 15:29:17;;;;;;;8.57;3.05;;;21.40;99.90;;;;;;5041502;28;20069;-84
2021/07/08 15:31:53;;;;;;;7.60;2.95;;;21.30;99.90;;;;;;5009876;28;20050;-84
2021/07/08 15:34:24;;;;;;;6.97;2.88;;;21.20;99.90;;;;;;5054050;28;20054;-83
2021/07/08 15:36:57;;;;;;;10.05;3.53;;;21.00;99.90;;;;;;5038868;28;20327;-84
2021/07/08 15:39:50;;;;;;;5.63;3.17;;;20.80;99.90;;;;;;5050811;28;20056;-84
2021/07/08 15:42:20;;;;;;;9.63;4.43;;;20.70;99.90;;;;;;5032817;28;20053;-83
2021/07/08 15:44:52;;;;;;;7.35;3.17;;;20.40;99.90;;;;;;5023700;28;20037;-84
2021/07/08 15:47:26;;;;;;;7.55;4.10;;;20.30;99.90;;;;;;5024941;28;20061;-84
2021/07/08 15:49:57;;;;;;;6.43;3.90;;;20.10;99.90;;;;;;5039670;28;20051;-84
2021/07/08 15:52:29;;;;;;;10.13;3.72;;;20.00;99.90;;;;;;5018723;28;20042;-84
2021/07/08 15:55:00;;;;;;;14.98;4.05;;;20.00;99.90;;;;;;5020127;28;20046;-85
2021/07/08 15:57:53;;;;;;;8.02;4.20;;;19.90;99.90;;;;;;5052388;28;20041;-84
2021/07/08 16:01:08;;;;;;;13.07;4.72;;;20.00;99.90;;;;;;5021720;28;20068;-85
2021/07/08 16:03:48;;;;;;;11.60;4.25;;;20.80;99.90;;;;;;5005037;28;20060;-83
2021/07/08 16:06:40;;;;;;;;;;;;;;;;;;;;;
2021/07/08 16:10:03;;;;;;;9.07;4.65;;;20.20;99.90;;;;;;5033640;28;20046;-84
2021/07/08 16:13:25;;;;;;;;;;;;;;;;;;;;;
2021/07/08 16:16:32;;;;;;;;;;;;;;;;;;;;;
2021/07/08 16:19:43;;;;;;;;;;;;;;;;;;;;;
2021/07/08 16:22:42;;;;;;;;;;;;;;;;;;;;;
2021/07/08 16:25:59;;;;;;;10.57;4.55;;;21.10;99.90;;;;;;5031323;28;20045;-83
2021/07/08 16:28:49;;;;;;;10.73;4.30;;;21.40;99.90;;;;;;5040565;28;20049;-84
2021/07/08 16:31:54;;;;;;;6.93;3.92;;;21.70;99.90;;;;;;5010100;28;20049;-84
2021/07/08 16:34:24;;;;;;;9.00;4.55;;;22.00;99.90;;;;;;5033958;28;20045;-83
2021/07/08 16:37:07;;;;;;;19.30;4.37;;;22.00;99.90;;;;;;5035396;28;20340;-83
2021/07/08 16:40:02;;;;;;;9.95;4.03;;;22.10;99.90;;;;;;5036240;28;20045;-83
2021/07/08 16:43:22;;;;;;;7.85;4.30;;;22.30;99.90;;;;;;5038453;28;20041;-86
2021/07/08 16:46:10;;;;;;;7.95;3.88;;;22.10;99.90;;;;;;5037395;28;20708;-84
2021/07/08 16:49:29;;;;;;;9.50;4.53;;;22.00;99.90;;;;;;4999071;28;20523;-84
2021/07/08 16:53:04;;;;;;;8.80;4.00;;;22.70;99.90;;;;;;4924350;29;20050;-83
2021/07/08 16:55:35;;;;;;;;;;;21.20;99.90;;;;;;4942621;29;20062;-83
2021/07/08 16:58:10;;;;;;;10.57;4.72;;;21.80;99.90;;;;;;4928375;29;19927;-82
2021/07/08 17:00:51;;;;;;;9.13;4.60;;;21.70;99.90;;;;;;4926876;29;20451;-82
2021/07/08 17:03:32;;;;;;;8.43;4.78;;;21.70;99.90;;;;;;4946310;29;20066;-82
2021/07/08 17:06:07;;;;;;;10.68;4.97;;;21.60;99.90;;;;;;4943671;29;20066;-83
2021/07/08 17:08:39;;;;;;;11.23;4.18;;;21.50;99.90;;;;;;4928195;29;20062;-82
2021/07/08 17:11:11;;;;;;;7.97;4.22;;;21.50;99.90;;;;;;4928348;29;20083;-84
2021/07/08 17:13:39;;;;;;;13.02;3.65;;;21.40;99.90;;;;;;4943506;29;20043;-83
2021/07/08 17:16:09;;;;;;;9.25;5.20;;;21.30;99.90;;;;;;4965309;28;20054;-82
2021/07/08 17:18:37;;;;;;;9.70;4.85;;;21.30;99.90;;;;;;5036101;28;20045;-82
2021/07/08 17:21:06;;;;;;;12.85;4.93;;;21.10;99.90;;;;;;5055786;28;20054;-82
2021/07/08 17:23:34;;;;;;;10.93;5.10;;;21.10;99.90;;;;;;5040564;28;20053;-81
2021/07/08 17:26:03;;;;;;;8.40;4.57;;;21.00;99.90;;;;;;5033532;28;20056;-80